Santa Mae Laura — CUQJ — position and weather

sailwx.info

Track history (hours):
 
Tides and Currents Weather Stations Pressure Air Temp Water Temp Dewpoint Dewpoint Depression Visibility Wind Speed Wind Dir Waves Ship Positions

Santa Mae Laura

Last reported at 2017-Apr-24 06:47 UTC. Time now 2017-Apr-24 07:19 UTC.
Position N 43°45' W 005°04'.

Length 24 m.

Type: Fishing. MMSI: 263432000.

Date/timePositionNaut miles runAvg speedWind from/ knotsBaromVisibWave heightAir tempDewpointWater temp
2017-Apr-24 06:47N 43°45' W 005°04'5 3.9
2017-Apr-24 05:24N 43°48' W 005°11'2 4.3
2017-Apr-24 04:59N 43°48' W 005°13'2 4.1
2017-Apr-24 04:29N 43°48' W 005°16'4 8.9
2017-Apr-24 04:00N 43°47' W 005°22'4 7.5
2017-Apr-24 03:30N 43°47' W 005°27'4 7.9
2017-Apr-24 02:59N 43°45' W 005°32'4 9.1
2017-Apr-24 02:31N 43°44' W 005°38'5 9.1
2017-Apr-24 02:00N 43°43' W 005°44'5 9.2
2017-Apr-24 01:30N 43°42' W 005°50'4 8.8
2017-Apr-24 01:00N 43°39' W 005°55'4 0.6
2017-Apr-23 18:40N 43°41' W 005°51'2 9.3
2017-Apr-23 18:29N 43°41' W 005°48'5 9.4
2017-Apr-23 18:00N 43°41' W 005°42'5 9.5
2017-Apr-23 17:30N 43°41' W 005°36'5 9.5
2017-Apr-23 17:00N 43°41' W 005°29'5 9.6
2017-Apr-23 16:31N 43°41' W 005°22'16 2.8
2017-Apr-23 10:47N 43°43' W 005°00'1 4.0
2017-Apr-23 10:30N 43°43' W 004°59'96 6.1
2017-Apr-22 18:34N 43°34' W 002°46'1 8.2
2017-Apr-22 18:27N 43°34' W 002°45'4 8.1
2017-Apr-22 18:00N 43°33' W 002°40'4 8.4
2017-Apr-22 17:30N 43°33' W 002°34'11 8.0
2017-Apr-22 16:04N 43°33' W 002°19'18 2.1
2017-Apr-22 07:26N 43°43' W 001°58'1 2.6
2017-Apr-22 07:00N 43°44' W 001°59'129 5.9
2017-Apr-21 09:00N 43°42' W 004°57'0 0.3
2017-Apr-21 08:29N 43°42' W 004°57'11 3.8
2017-Apr-21 05:29N 43°48' W 005°11'2 4.9
2017-Apr-21 04:59N 43°49' W 005°14'4 6.1
2017-Apr-21 04:21N 43°48' W 005°19'3 7.2
2017-Apr-21 04:00N 43°48' W 005°23'4 7.0
2017-Apr-21 03:30N 43°47' W 005°28'4 7.0
2017-Apr-21 02:58N 43°46' W 005°32'3 7.1
2017-Apr-21 02:30N 43°45' W 005°37'4 7.3
2017-Apr-21 01:59N 43°44' W 005°42'4 7.5
2017-Apr-21 01:24N 43°42' W 005°48'3 7.4
2017-Apr-21 01:00N 43°41' W 005°52'  
2017-Apr-18 18:14N 43°41' W 005°52'3 9.9
2017-Apr-18 17:57N 43°42' W 005°48'5 9.8
2017-Apr-18 17:27N 43°42' W 005°41'4 9.6
2017-Apr-18 17:00N 43°43' W 005°35'5 9.6
2017-Apr-18 16:30N 43°44' W 005°29'6 9.7
2017-Apr-18 15:50N 43°45' W 005°20'17 0.5
2017-Apr-17 09:14N 43°42' W 004°57'11 3.7
2017-Apr-17 06:13N 43°48' W 005°11'2 4.6
2017-Apr-17 05:50N 43°48' W 005°13'2 5.2
2017-Apr-17 05:26N 43°48' W 005°16'4 8.8
2017-Apr-17 05:00N 43°47' W 005°21'4 8.9
2017-Apr-17 04:31N 43°46' W 005°27'5 8.6
2017-Apr-17 03:59N 43°45' W 005°33'4 8.5
2017-Apr-17 03:30N 43°44' W 005°39'5 8.7
2017-Apr-17 02:59N 43°43' W 005°45'4 8.8
2017-Apr-17 02:30N 43°41' W 005°50'4 8.6
2017-Apr-17 02:01N 43°39' W 005°55'  
Track history (hours):
 
Tides and Currents Weather Stations Pressure Air Temp Water Temp Dewpoint Dewpoint Depression Visibility Wind Speed Wind Dir Waves Ship Positions

Santa Mae Laura

Last reported at 2017-Apr-24 06:47 UTC. Time now 2017-Apr-24 07:19 UTC.
Position N 43°45' W 005°04'.

Length 24 m.

Type: Fishing. MMSI: 263432000.

Date/timePositionNaut miles runAvg speedWind from/ knotsBaromVisibWave heightAir tempDewpointWater temp
2017-Apr-24 06:47N 43°45' W 005°04'5 3.9
2017-Apr-24 05:24N 43°48' W 005°11'2 4.3
2017-Apr-24 04:59N 43°48' W 005°13'2 4.1
2017-Apr-24 04:29N 43°48' W 005°16'4 8.9
2017-Apr-24 04:00N 43°47' W 005°22'4 7.5
2017-Apr-24 03:30N 43°47' W 005°27'4 7.9
2017-Apr-24 02:59N 43°45' W 005°32'4 9.1
2017-Apr-24 02:31N 43°44' W 005°38'5 9.1
2017-Apr-24 02:00N 43°43' W 005°44'5 9.2
2017-Apr-24 01:30N 43°42' W 005°50'4 8.8
2017-Apr-24 01:00N 43°39' W 005°55'4 0.6
2017-Apr-23 18:40N 43°41' W 005°51'2 9.3
2017-Apr-23 18:29N 43°41' W 005°48'5 9.4
2017-Apr-23 18:00N 43°41' W 005°42'5 9.5
2017-Apr-23 17:30N 43°41' W 005°36'5 9.5
2017-Apr-23 17:00N 43°41' W 005°29'5 9.6
2017-Apr-23 16:31N 43°41' W 005°22'16 2.8
2017-Apr-23 10:47N 43°43' W 005°00'1 4.0
2017-Apr-23 10:30N 43°43' W 004°59'96 6.1
2017-Apr-22 18:34N 43°34' W 002°46'1 8.2
2017-Apr-22 18:27N 43°34' W 002°45'4 8.1
2017-Apr-22 18:00N 43°33' W 002°40'4 8.4
2017-Apr-22 17:30N 43°33' W 002°34'11 8.0
2017-Apr-22 16:04N 43°33' W 002°19'18 2.1
2017-Apr-22 07:26N 43°43' W 001°58'1 2.6
2017-Apr-22 07:00N 43°44' W 001°59'129 5.9
2017-Apr-21 09:00N 43°42' W 004°57'0 0.3
2017-Apr-21 08:29N 43°42' W 004°57'11 3.8
2017-Apr-21 05:29N 43°48' W 005°11'2 4.9
2017-Apr-21 04:59N 43°49' W 005°14'4 6.1
2017-Apr-21 04:21N 43°48' W 005°19'3 7.2
2017-Apr-21 04:00N 43°48' W 005°23'4 7.0
2017-Apr-21 03:30N 43°47' W 005°28'4 7.0
2017-Apr-21 02:58N 43°46' W 005°32'3 7.1
2017-Apr-21 02:30N 43°45' W 005°37'4 7.3
2017-Apr-21 01:59N 43°44' W 005°42'4 7.5
2017-Apr-21 01:24N 43°42' W 005°48'3 7.4
2017-Apr-21 01:00N 43°41' W 005°52'  
2017-Apr-18 18:14N 43°41' W 005°52'3 9.9
2017-Apr-18 17:57N 43°42' W 005°48'5 9.8
2017-Apr-18 17:27N 43°42' W 005°41'4 9.6
2017-Apr-18 17:00N 43°43' W 005°35'5 9.6
2017-Apr-18 16:30N 43°44' W 005°29'6 9.7
2017-Apr-18 15:50N 43°45' W 005°20'17 0.5
2017-Apr-17 09:14N 43°42' W 004°57'11 3.7
2017-Apr-17 06:13N 43°48' W 005°11'2 4.6
2017-Apr-17 05:50N 43°48' W 005°13'2 5.2
2017-Apr-17 05:26N 43°48' W 005°16'4 8.8
2017-Apr-17 05:00N 43°47' W 005°21'4 8.9
2017-Apr-17 04:31N 43°46' W 005°27'5 8.6
2017-Apr-17 03:59N 43°45' W 005°33'4 8.5
2017-Apr-17 03:30N 43°44' W 005°39'5 8.7
2017-Apr-17 02:59N 43°43' W 005°45'4 8.8
2017-Apr-17 02:30N 43°41' W 005°50'4 8.6
2017-Apr-17 02:01N 43°39' W 005°55'  

Dump ship's entire track history